THA955 ENGM-VTBS
Flight info
| Callsign | THA955 |
|---|---|
| Flight time | N/A |
| Altitude | 37000 |
| Route | OKSAT L996 LATKU L727 NEGIL DCT NEMBA DCT PENOR N133 LENOV DCT KEKED DCT BADOR DCT LAPKA DCT REVDA DCT UDROS DCT CRM UM11 REBLO/N0490F390 M11 LUSAL M747 SULEL N449 DUKAN B449 RANAH L750 MERUN L333 KKJ/N0484F410 B209 JJS P646 TARED WILLA1C |
| Aircraft | A359/H-SDE2E3GHIJ1J3J4J5LM1ORWXY/LB1D1 |
Departure
| Time | 2026-05-08 05:17 |
|---|---|
| Airport | Oslo-Gardermoen International Airport (ENGM) |
Arrival
| Time | N/A |
|---|---|
| Airport | Suvarnabhumi Airport (VTBS) |
| Time | Latitude | Longitude | Altitude | Speed | Heading |
|---|---|---|---|---|---|
| 2026-05-08 04:53 | 60.19358 | 11.11073 | 685 ft | 0 kts | 196° |
| 2026-05-08 04:53 | 60.19354 | 11.11071 | 685 ft | 0 kts | 196° |
| 2026-05-08 05:05 | 60.19367 | 11.11078 | 682 ft | 4 kts | 196° |
| 2026-05-08 05:05 | 60.19393 | 11.11093 | 682 ft | 4 kts | 196° |
| 2026-05-08 05:05 | 60.19414 | 11.11105 | 681 ft | 4 kts | 189° |
| 2026-05-08 05:06 | 60.19435 | 11.11100 | 684 ft | 4 kts | 127° |
| 2026-05-08 05:06 | 60.19440 | 11.11084 | 681 ft | 3 kts | 106° |
| 2026-05-08 05:06 | 60.19437 | 11.11110 | 681 ft | 1 kts | 106° |
| 2026-05-08 05:06 | 60.19438 | 11.11111 | 681 ft | 0 kts | 106° |
| 2026-05-08 05:08 | 60.19434 | 11.11134 | 682 ft | 4 kts | 106° |
| 2026-05-08 05:09 | 60.19425 | 11.11207 | 684 ft | 7 kts | 99° |
| 2026-05-08 05:09 | 60.19451 | 11.11289 | 684 ft | 9 kts | 31° |
| 2026-05-08 05:09 | 60.19519 | 11.11338 | 682 ft | 12 kts | 17° |
| 2026-05-08 05:09 | 60.19604 | 11.11388 | 685 ft | 14 kts | 16° |
| 2026-05-08 05:10 | 60.19702 | 11.11442 | 682 ft | 15 kts | 9° |
| 2026-05-08 05:10 | 60.19818 | 11.11088 | 685 ft | 18 kts | 286° |
| 2026-05-08 05:10 | 60.19855 | 11.10831 | 683 ft | 20 kts | 286° |
| 2026-05-08 05:11 | 60.19894 | 11.10552 | 683 ft | 21 kts | 285° |
| 2026-05-08 05:11 | 60.19935 | 11.10267 | 687 ft | 21 kts | 286° |
| 2026-05-08 05:11 | 60.19976 | 11.09983 | 687 ft | 21 kts | 285° |
| 2026-05-08 05:11 | 60.20017 | 11.09688 | 685 ft | 22 kts | 285° |
| 2026-05-08 05:12 | 60.20060 | 11.09380 | 687 ft | 23 kts | 285° |
| 2026-05-08 05:12 | 60.20090 | 11.09169 | 683 ft | 24 kts | 286° |
| 2026-05-08 05:12 | 60.20136 | 11.08856 | 682 ft | 16 kts | 286° |
| 2026-05-08 05:12 | 60.20089 | 11.08690 | 680 ft | 16 kts | 204° |
| 2026-05-08 05:13 | 60.19978 | 11.08619 | 679 ft | 18 kts | 195° |
| 2026-05-08 05:13 | 60.19848 | 11.08546 | 680 ft | 20 kts | 195° |
| 2026-05-08 05:13 | 60.19712 | 11.08468 | 679 ft | 21 kts | 196° |
| 2026-05-08 05:13 | 60.19570 | 11.08388 | 678 ft | 22 kts | 196° |
| 2026-05-08 05:14 | 60.19422 | 11.08302 | 677 ft | 23 kts | 197° |
| 2026-05-08 05:14 | 60.19265 | 11.08211 | 677 ft | 24 kts | 196° |
| 2026-05-08 05:14 | 60.19102 | 11.08117 | 674 ft | 25 kts | 196° |
| 2026-05-08 05:14 | 60.18936 | 11.08022 | 674 ft | 25 kts | 196° |
| 2026-05-08 05:15 | 60.18769 | 11.07926 | 676 ft | 25 kts | 196° |
| 2026-05-08 05:15 | 60.18610 | 11.07834 | 672 ft | 7 kts | 196° |
| 2026-05-08 05:15 | 60.18576 | 11.07812 | 672 ft | 8 kts | 204° |
| 2026-05-08 05:15 | 60.18565 | 11.07692 | 671 ft | 12 kts | 279° |
| 2026-05-08 05:16 | 60.18590 | 11.07506 | 672 ft | 15 kts | 288° |
| 2026-05-08 05:16 | 60.18668 | 11.07472 | 673 ft | 13 kts | 14° |
| 2026-05-08 05:16 | 60.18884 | 11.07595 | 675 ft | 61 kts | 16° |
| 2026-05-08 05:16 | 60.19531 | 11.07966 | 675 ft | 127 kts | 15° |
| 2026-05-08 05:17 | 60.20525 | 11.08539 | 725 ft | 166 kts | 15° |
| 2026-05-08 05:17 | 60.21644 | 11.09161 | 1279 ft | 164 kts | 16° |
| 2026-05-08 05:17 | 60.22758 | 11.09800 | 1788 ft | 174 kts | 16° |
| 2026-05-08 05:17 | 60.23990 | 11.10513 | 1992 ft | 194 kts | 16° |
| 2026-05-08 05:18 | 60.25368 | 11.11235 | 2166 ft | 215 kts | 11° |
| 2026-05-08 05:18 | 60.26903 | 11.11254 | 2513 ft | 225 kts | 356° |
| 2026-05-08 05:18 | 60.28460 | 11.11701 | 2945 ft | 230 kts | 24° |
| 2026-05-08 05:18 | 60.29656 | 11.13759 | 3405 ft | 230 kts | 59° |
| 2026-05-08 05:19 | 60.30481 | 11.16660 | 3654 ft | 248 kts | 66° |
| 2026-05-08 05:19 | 60.31277 | 11.19892 | 3968 ft | 264 kts | 67° |
| 2026-05-08 05:19 | 60.32104 | 11.23242 | 4529 ft | 269 kts | 66° |
| 2026-05-08 05:19 | 60.32953 | 11.26625 | 5194 ft | 272 kts | 66° |
| 2026-05-08 05:20 | 60.33815 | 11.30050 | 5842 ft | 275 kts | 66° |
| 2026-05-08 05:20 | 60.34670 | 11.33538 | 6511 ft | 278 kts | 69° |
| 2026-05-08 05:20 | 60.35154 | 11.37235 | 7131 ft | 277 kts | 88° |
| 2026-05-08 05:20 | 60.34929 | 11.41046 | 7748 ft | 274 kts | 114° |
| 2026-05-08 05:21 | 60.33886 | 11.44191 | 8379 ft | 270 kts | 141° |
| 2026-05-08 05:21 | 60.32392 | 11.46474 | 9037 ft | 271 kts | 151° |
| 2026-05-08 05:21 | 60.30735 | 11.48329 | 9683 ft | 274 kts | 156° |
| 2026-05-08 05:21 | 60.28993 | 11.49988 | 10244 ft | 282 kts | 158° |
| 2026-05-08 05:22 | 60.27152 | 11.51655 | 10523 ft | 299 kts | 158° |
| 2026-05-08 05:22 | 60.25203 | 11.53442 | 10783 ft | 317 kts | 157° |
| 2026-05-08 05:22 | 60.23156 | 11.55385 | 11028 ft | 334 kts | 156° |
| 2026-05-08 05:22 | 60.21025 | 11.57474 | 11390 ft | 346 kts | 156° |
| 2026-05-08 05:23 | 60.18852 | 11.59651 | 11953 ft | 352 kts | 155° |
| 2026-05-08 05:23 | 60.16655 | 11.61874 | 12565 ft | 356 kts | 155° |
| 2026-05-08 05:23 | 60.14432 | 11.64125 | 13169 ft | 360 kts | 155° |
| 2026-05-08 05:23 | 60.12184 | 11.66399 | 13772 ft | 364 kts | 155° |
| 2026-05-08 05:24 | 60.09915 | 11.68688 | 14313 ft | 367 kts | 156° |
| 2026-05-08 05:24 | 60.07616 | 11.71000 | 14840 ft | 371 kts | 156° |
| 2026-05-08 05:24 | 60.05294 | 11.73327 | 15345 ft | 375 kts | 156° |
| 2026-05-08 05:24 | 60.02945 | 11.75674 | 15884 ft | 379 kts | 156° |
| 2026-05-08 05:25 | 60.00573 | 11.78039 | 16405 ft | 383 kts | 156° |
| 2026-05-08 05:25 | 59.98178 | 11.80423 | 16956 ft | 387 kts | 156° |
| 2026-05-08 05:25 | 59.95787 | 11.82798 | 17494 ft | 391 kts | 156° |
| 2026-05-08 05:25 | 59.93340 | 11.85227 | 18067 ft | 395 kts | 156° |
| 2026-05-08 05:26 | 59.90869 | 11.87676 | 18618 ft | 398 kts | 155° |
| 2026-05-08 05:26 | 59.88347 | 11.90173 | 19161 ft | 400 kts | 156° |
| 2026-05-08 05:26 | 59.85879 | 11.92611 | 19671 ft | 403 kts | 156° |
| 2026-05-08 05:26 | 59.83356 | 11.95098 | 20144 ft | 407 kts | 156° |
| 2026-05-08 05:27 | 59.80805 | 11.97608 | 20593 ft | 411 kts | 156° |
| 2026-05-08 05:27 | 59.78237 | 12.00130 | 21126 ft | 413 kts | 156° |
| 2026-05-08 05:27 | 59.75657 | 12.02659 | 21644 ft | 415 kts | 156° |
| 2026-05-08 05:27 | 59.73060 | 12.05203 | 22146 ft | 418 kts | 156° |
| 2026-05-08 05:28 | 59.70444 | 12.07759 | 22647 ft | 420 kts | 156° |
| 2026-05-08 05:28 | 59.67813 | 12.10325 | 23168 ft | 423 kts | 156° |
| 2026-05-08 05:28 | 59.65164 | 12.12905 | 23653 ft | 426 kts | 156° |
| 2026-05-08 05:28 | 59.62499 | 12.15496 | 24070 ft | 428 kts | 156° |
| 2026-05-08 05:29 | 59.59816 | 12.18100 | 24468 ft | 431 kts | 156° |
| 2026-05-08 05:29 | 59.57125 | 12.20708 | 24940 ft | 432 kts | 156° |
| 2026-05-08 05:29 | 59.54420 | 12.23325 | 25326 ft | 434 kts | 156° |
| 2026-05-08 05:29 | 59.51698 | 12.25953 | 25715 ft | 437 kts | 156° |
| 2026-05-08 05:30 | 59.48956 | 12.28594 | 26088 ft | 440 kts | 156° |
| 2026-05-08 05:30 | 59.46199 | 12.31245 | 26484 ft | 442 kts | 156° |
| 2026-05-08 05:30 | 59.43460 | 12.33874 | 26858 ft | 445 kts | 156° |
| 2026-05-08 05:30 | 59.40691 | 12.36528 | 27238 ft | 448 kts | 156° |
| 2026-05-08 05:31 | 59.37882 | 12.39214 | 27613 ft | 450 kts | 156° |
| 2026-05-08 05:31 | 59.35058 | 12.41910 | 27979 ft | 453 kts | 157° |
| 2026-05-08 05:31 | 59.32217 | 12.44617 | 28340 ft | 455 kts | 157° |
| 2026-05-08 05:31 | 59.29365 | 12.47331 | 28695 ft | 458 kts | 157° |
| 2026-05-08 05:32 | 59.26495 | 12.50055 | 29108 ft | 458 kts | 156° |
| 2026-05-08 05:32 | 59.23625 | 12.52776 | 29540 ft | 459 kts | 156° |
| 2026-05-08 05:32 | 59.20743 | 12.55504 | 29843 ft | 462 kts | 156° |
| 2026-05-08 05:32 | 59.17842 | 12.58242 | 30149 ft | 465 kts | 156° |
| 2026-05-08 05:33 | 59.14927 | 12.60988 | 30448 ft | 467 kts | 156° |
| 2026-05-08 05:33 | 59.11988 | 12.63751 | 30719 ft | 469 kts | 156° |
| 2026-05-08 05:33 | 59.09044 | 12.66515 | 30998 ft | 470 kts | 156° |
| 2026-05-08 05:33 | 59.06090 | 12.69283 | 31265 ft | 472 kts | 157° |
| 2026-05-08 05:34 | 59.03128 | 12.72053 | 31521 ft | 473 kts | 157° |
| 2026-05-08 05:34 | 59.00156 | 12.74827 | 31773 ft | 475 kts | 157° |
| 2026-05-08 05:34 | 58.97198 | 12.77583 | 32003 ft | 476 kts | 157° |
| 2026-05-08 05:34 | 58.94211 | 12.80359 | 32274 ft | 476 kts | 156° |
| 2026-05-08 05:35 | 58.91220 | 12.83136 | 32536 ft | 477 kts | 156° |
| 2026-05-08 05:35 | 58.88230 | 12.85906 | 32846 ft | 476 kts | 156° |
| 2026-05-08 05:35 | 58.85250 | 12.88661 | 33169 ft | 475 kts | 156° |
| 2026-05-08 05:35 | 58.82269 | 12.91411 | 33471 ft | 474 kts | 156° |
| 2026-05-08 05:36 | 58.79296 | 12.94149 | 33766 ft | 473 kts | 156° |
| 2026-05-08 05:36 | 58.76329 | 12.96876 | 34058 ft | 472 kts | 156° |
| 2026-05-08 05:36 | 58.73364 | 12.99596 | 34314 ft | 472 kts | 156° |
| 2026-05-08 05:36 | 58.70440 | 13.02273 | 34523 ft | 471 kts | 156° |
| 2026-05-08 05:37 | 58.67484 | 13.04973 | 34702 ft | 472 kts | 156° |
| 2026-05-08 05:37 | 58.64514 | 13.07681 | 34887 ft | 472 kts | 156° |
| 2026-05-08 05:37 | 58.61558 | 13.10372 | 35152 ft | 470 kts | 156° |
| 2026-05-08 05:37 | 58.58606 | 13.13055 | 35346 ft | 469 kts | 156° |
| 2026-05-08 05:38 | 58.55653 | 13.15733 | 35473 ft | 470 kts | 156° |
| 2026-05-08 05:38 | 58.52691 | 13.18413 | 35618 ft | 471 kts | 156° |
| 2026-05-08 05:38 | 58.49729 | 13.21090 | 35778 ft | 471 kts | 156° |
| 2026-05-08 05:39 | 58.43783 | 13.26447 | 35976 ft | 474 kts | 156° |
| 2026-05-08 05:39 | 58.40803 | 13.29125 | 36155 ft | 473 kts | 156° |
| 2026-05-08 05:39 | 58.37822 | 13.31799 | 36307 ft | 473 kts | 156° |
| 2026-05-08 05:39 | 58.34841 | 13.34467 | 36444 ft | 474 kts | 156° |
| 2026-05-08 05:40 | 58.31859 | 13.37131 | 36572 ft | 474 kts | 156° |
| 2026-05-08 05:40 | 58.28875 | 13.39792 | 36726 ft | 473 kts | 156° |
| 2026-05-08 05:40 | 58.25899 | 13.42441 | 36857 ft | 473 kts | 156° |
| 2026-05-08 05:40 | 58.22909 | 13.45097 | 36961 ft | 474 kts | 156° |
| 2026-05-08 05:41 | 58.19924 | 13.47744 | 37064 ft | 474 kts | 156° |
| 2026-05-08 05:41 | 58.16946 | 13.50380 | 37200 ft | 474 kts | 156° |
| 2026-05-08 05:41 | 58.13941 | 13.53034 | 37254 ft | 476 kts | 156° |
| 2026-05-08 05:42 | 58.07949 | 13.58312 | 37261 ft | 481 kts | 156° |
| 2026-05-08 05:42 | 58.01856 | 13.63659 | 37266 ft | 485 kts | 156° |
| 2026-05-08 05:43 | 57.95708 | 13.69036 | 37266 ft | 489 kts | 156° |
| 2026-05-08 05:43 | 57.89517 | 13.74429 | 37268 ft | 492 kts | 156° |
| 2026-05-08 05:44 | 57.83295 | 13.79828 | 37268 ft | 493 kts | 156° |
| 2026-05-08 05:44 | 57.77067 | 13.85213 | 37267 ft | 493 kts | 156° |
| 2026-05-08 05:45 | 57.70840 | 13.90576 | 37265 ft | 493 kts | 156° |
| 2026-05-08 05:45 | 57.64614 | 13.95916 | 37269 ft | 492 kts | 156° |
| 2026-05-08 05:46 | 57.58434 | 14.01197 | 37280 ft | 492 kts | 156° |
| 2026-05-08 05:46 | 57.52209 | 14.06498 | 37279 ft | 492 kts | 156° |
| 2026-05-08 05:47 | 57.45983 | 14.11778 | 37256 ft | 492 kts | 156° |
| 2026-05-08 05:47 | 57.39759 | 14.17038 | 37269 ft | 492 kts | 156° |
| 2026-05-08 05:48 | 57.33528 | 14.22282 | 37269 ft | 492 kts | 156° |
| 2026-05-08 05:48 | 57.27301 | 14.27506 | 37263 ft | 491 kts | 156° |
| 2026-05-08 05:49 | 57.21078 | 14.32706 | 37267 ft | 491 kts | 156° |
| 2026-05-08 05:49 | 57.15202 | 14.39086 | 37273 ft | 491 kts | 141° |
| 2026-05-08 05:50 | 57.10185 | 14.47631 | 37276 ft | 492 kts | 134° |
| 2026-05-08 05:50 | 57.05544 | 14.56761 | 37278 ft | 492 kts | 133° |
| 2026-05-08 05:51 | 57.00896 | 14.65986 | 37283 ft | 492 kts | 133° |
| 2026-05-08 05:51 | 56.96209 | 14.75099 | 37287 ft | 491 kts | 134° |
| 2026-05-08 05:52 | 56.91489 | 14.84153 | 37262 ft | 492 kts | 134° |
| 2026-05-08 05:52 | 56.86751 | 14.93185 | 37270 ft | 492 kts | 134° |
| 2026-05-08 05:53 | 56.82019 | 15.02173 | 37293 ft | 490 kts | 134° |
| 2026-05-08 05:53 | 56.77286 | 15.11137 | 37294 ft | 491 kts | 134° |
| 2026-05-08 05:54 | 56.72541 | 15.20089 | 37295 ft | 491 kts | 134° |
| 2026-05-08 05:54 | 56.67828 | 15.28944 | 37296 ft | 491 kts | 134° |
| 2026-05-08 05:55 | 56.63058 | 15.37874 | 37295 ft | 491 kts | 134° |
| 2026-05-08 05:55 | 56.58285 | 15.46774 | 37292 ft | 492 kts | 134° |
| 2026-05-08 05:56 | 56.53504 | 15.55656 | 37293 ft | 492 kts | 134° |
| 2026-05-08 05:56 | 56.48719 | 15.64510 | 37292 ft | 491 kts | 134° |
| 2026-05-08 05:57 | 56.43936 | 15.73327 | 37292 ft | 492 kts | 134° |
| 2026-05-08 05:57 | 56.39130 | 15.82152 | 37290 ft | 493 kts | 134° |
| 2026-05-08 05:58 | 56.34357 | 15.90884 | 37292 ft | 492 kts | 135° |
| 2026-05-08 05:58 | 56.29546 | 15.99651 | 37290 ft | 492 kts | 135° |
| 2026-05-08 05:59 | 56.24731 | 16.08394 | 37293 ft | 493 kts | 135° |
| 2026-05-08 05:59 | 56.19901 | 16.17130 | 37286 ft | 492 kts | 135° |
| 2026-05-08 06:00 | 56.15075 | 16.25825 | 37287 ft | 491 kts | 135° |
| 2026-05-08 06:00 | 56.10241 | 16.34503 | 37286 ft | 492 kts | 135° |
| 2026-05-08 06:01 | 56.05388 | 16.43181 | 37276 ft | 493 kts | 135° |
| 2026-05-08 06:01 | 56.00530 | 16.51836 | 37276 ft | 492 kts | 136° |
| 2026-05-08 06:02 | 55.95673 | 16.60458 | 37277 ft | 493 kts | 136° |
| 2026-05-08 06:02 | 55.90789 | 16.69093 | 37273 ft | 495 kts | 136° |
| 2026-05-08 06:03 | 55.85920 | 16.77670 | 37269 ft | 495 kts | 136° |
| 2026-05-08 06:03 | 55.81020 | 16.86271 | 37270 ft | 494 kts | 136° |
| 2026-05-08 06:04 | 55.76119 | 16.94840 | 37267 ft | 495 kts | 136° |
| 2026-05-08 06:04 | 55.71204 | 17.03403 | 37265 ft | 495 kts | 136° |
| 2026-05-08 06:05 | 55.66268 | 17.11897 | 37261 ft | 493 kts | 140° |
| 2026-05-08 06:05 | 55.60634 | 17.18670 | 37262 ft | 490 kts | 154° |
| 2026-05-08 06:06 | 55.54488 | 17.23899 | 37254 ft | 490 kts | 156° |
| 2026-05-08 06:06 | 55.48257 | 17.28836 | 37260 ft | 492 kts | 156° |
| 2026-05-08 06:07 | 55.41998 | 17.33785 | 37252 ft | 494 kts | 156° |
| 2026-05-08 06:07 | 55.35747 | 17.38770 | 37250 ft | 492 kts | 156° |
| 2026-05-08 06:08 | 55.29529 | 17.43730 | 37241 ft | 490 kts | 156° |
| 2026-05-08 06:08 | 55.23312 | 17.48673 | 37240 ft | 491 kts | 156° |
| 2026-05-08 06:09 | 55.17084 | 17.53584 | 37237 ft | 491 kts | 157° |
| 2026-05-08 06:09 | 55.10829 | 17.58373 | 37237 ft | 491 kts | 158° |
| 2026-05-08 06:10 | 55.04565 | 17.63134 | 37233 ft | 491 kts | 158° |
| 2026-05-08 06:10 | 54.98349 | 17.67861 | 37233 ft | 491 kts | 158° |
| 2026-05-08 06:11 | 54.92094 | 17.72704 | 37225 ft | 493 kts | 156° |
| 2026-05-08 06:11 | 54.85836 | 17.77668 | 37228 ft | 495 kts | 156° |
| 2026-05-08 06:12 | 54.79566 | 17.82623 | 37230 ft | 495 kts | 156° |
| 2026-05-08 06:12 | 54.73289 | 17.87541 | 37225 ft | 495 kts | 157° |
| 2026-05-08 06:13 | 54.68065 | 17.91589 | 37227 ft | 495 kts | 157° |
| 2026-05-08 06:13 | 54.61779 | 17.96443 | 37220 ft | 495 kts | 157° |
| 2026-05-08 06:14 | 54.55492 | 18.01287 | 37202 ft | 495 kts | 157° |
| 2026-05-08 06:14 | 54.49214 | 18.06113 | 37203 ft | 493 kts | 157° |
| 2026-05-08 06:15 | 54.42949 | 18.10913 | 37195 ft | 493 kts | 157° |
| 2026-05-08 06:15 | 54.36684 | 18.15695 | 37192 ft | 493 kts | 157° |
| 2026-05-08 06:16 | 54.30403 | 18.20474 | 37189 ft | 494 kts | 157° |
| 2026-05-08 06:16 | 54.24110 | 18.25229 | 37190 ft | 494 kts | 158° |
| 2026-05-08 06:17 | 54.14659 | 18.32273 | 37185 ft | 494 kts | 158° |
| 2026-05-08 06:17 | 54.08370 | 18.36946 | 37192 ft | 493 kts | 158° |
| 2026-05-08 06:18 | 54.02120 | 18.41580 | 37182 ft | 493 kts | 158° |
| 2026-05-08 06:18 | 53.95823 | 18.46237 | 37186 ft | 494 kts | 158° |
| 2026-05-08 06:19 | 53.89526 | 18.50878 | 37180 ft | 494 kts | 158° |
| 2026-05-08 06:19 | 53.83226 | 18.55506 | 37171 ft | 494 kts | 158° |
| 2026-05-08 06:20 | 53.76922 | 18.60121 | 37169 ft | 494 kts | 158° |
| 2026-05-08 06:20 | 53.70623 | 18.64725 | 37165 ft | 493 kts | 158° |
| 2026-05-08 06:21 | 53.64326 | 18.69302 | 37162 ft | 492 kts | 158° |
| 2026-05-08 06:21 | 53.58034 | 18.73858 | 37155 ft | 492 kts | 158° |
| 2026-05-08 06:22 | 53.51698 | 18.78238 | 37168 ft | 491 kts | 163° |
| 2026-05-08 06:22 | 53.45203 | 18.81834 | 37150 ft | 492 kts | 164° |
| 2026-05-08 06:23 | 53.38668 | 18.85275 | 37141 ft | 492 kts | 164° |
| 2026-05-08 06:23 | 53.32148 | 18.88676 | 37146 ft | 490 kts | 164° |
| 2026-05-08 06:24 | 53.25645 | 18.92070 | 37146 ft | 489 kts | 164° |
| 2026-05-08 06:24 | 53.19145 | 18.95463 | 37138 ft | 490 kts | 164° |
| 2026-05-08 06:25 | 53.12631 | 18.98862 | 37140 ft | 491 kts | 164° |
| 2026-05-08 06:25 | 53.06105 | 19.02243 | 37141 ft | 491 kts | 164° |
| 2026-05-08 06:26 | 52.99579 | 19.05614 | 37133 ft | 491 kts | 164° |
| 2026-05-08 06:26 | 52.93054 | 19.08975 | 37127 ft | 490 kts | 165° |
| 2026-05-08 06:27 | 52.86585 | 19.12299 | 37129 ft | 490 kts | 165° |
| 2026-05-08 06:27 | 52.80081 | 19.15630 | 37126 ft | 489 kts | 165° |
| 2026-05-08 06:28 | 52.73576 | 19.18951 | 37124 ft | 489 kts | 165° |
| 2026-05-08 06:28 | 52.67071 | 19.22263 | 37114 ft | 489 kts | 165° |
| 2026-05-08 06:29 | 52.60556 | 19.25568 | 37124 ft | 490 kts | 165° |
| 2026-05-08 06:29 | 52.54034 | 19.28871 | 37119 ft | 491 kts | 165° |
| 2026-05-08 06:30 | 52.47520 | 19.32158 | 37119 ft | 489 kts | 165° |
| 2026-05-08 06:30 | 52.41025 | 19.35419 | 37119 ft | 488 kts | 165° |
| 2026-05-08 06:31 | 52.34536 | 19.38667 | 37113 ft | 488 kts | 165° |
| 2026-05-08 06:31 | 52.28030 | 19.41916 | 37113 ft | 489 kts | 165° |
| 2026-05-08 06:32 | 52.21524 | 19.45156 | 37115 ft | 489 kts | 165° |
| 2026-05-08 06:32 | 52.15012 | 19.48389 | 37111 ft | 489 kts | 165° |
| 2026-05-08 06:33 | 52.08501 | 19.51613 | 37107 ft | 489 kts | 165° |
| 2026-05-08 06:33 | 52.01981 | 19.54832 | 37107 ft | 490 kts | 165° |
| 2026-05-08 06:34 | 51.95446 | 19.58046 | 37104 ft | 490 kts | 165° |
| 2026-05-08 06:34 | 51.88959 | 19.61230 | 37103 ft | 490 kts | 165° |
| 2026-05-08 06:35 | 51.82430 | 19.64429 | 37102 ft | 490 kts | 165° |
| 2026-05-08 06:35 | 51.75905 | 19.67678 | 37105 ft | 491 kts | 164° |
| 2026-05-08 06:36 | 51.69420 | 19.71138 | 37105 ft | 491 kts | 163° |
| 2026-05-08 06:36 | 51.62944 | 19.74612 | 37096 ft | 489 kts | 164° |
| 2026-05-08 06:37 | 51.56485 | 19.78013 | 37090 ft | 488 kts | 164° |
| 2026-05-08 06:37 | 51.50016 | 19.81395 | 37091 ft | 489 kts | 164° |
| 2026-05-08 06:38 | 51.43545 | 19.84784 | 37091 ft | 490 kts | 164° |
| 2026-05-08 06:38 | 51.37064 | 19.88159 | 37091 ft | 490 kts | 164° |
| 2026-05-08 06:39 | 51.30586 | 19.91523 | 37083 ft | 490 kts | 164° |
| 2026-05-08 06:39 | 51.24103 | 19.94878 | 37081 ft | 490 kts | 164° |
| 2026-05-08 06:40 | 51.17624 | 19.98225 | 37083 ft | 489 kts | 165° |
| 2026-05-08 06:40 | 51.11192 | 20.01524 | 37084 ft | 489 kts | 165° |
| 2026-05-08 06:41 | 51.04718 | 20.04839 | 37085 ft | 489 kts | 165° |
| 2026-05-08 06:41 | 50.98242 | 20.08139 | 37082 ft | 490 kts | 165° |
| 2026-05-08 06:42 | 50.91740 | 20.11444 | 37080 ft | 491 kts | 165° |
| 2026-05-08 06:42 | 50.85234 | 20.14754 | 37075 ft | 490 kts | 165° |
| 2026-05-08 06:43 | 50.78752 | 20.18037 | 37081 ft | 488 kts | 165° |
| 2026-05-08 06:43 | 50.72286 | 20.21301 | 37082 ft | 488 kts | 165° |
| 2026-05-08 06:44 | 50.65798 | 20.24566 | 37082 ft | 490 kts | 165° |
| 2026-05-08 06:44 | 50.59341 | 20.28066 | 37079 ft | 492 kts | 162° |
| 2026-05-08 06:45 | 50.52960 | 20.31976 | 37072 ft | 492 kts | 161° |
| 2026-05-08 06:45 | 50.46586 | 20.35866 | 37078 ft | 491 kts | 162° |
| 2026-05-08 06:46 | 50.40194 | 20.39673 | 37080 ft | 491 kts | 162° |
| 2026-05-08 06:46 | 50.33793 | 20.43439 | 37066 ft | 491 kts | 162° |
| 2026-05-08 06:47 | 50.27397 | 20.47188 | 37059 ft | 491 kts | 162° |
| 2026-05-08 06:47 | 50.20991 | 20.50935 | 37067 ft | 492 kts | 162° |
| 2026-05-08 06:48 | 50.14580 | 20.54677 | 37069 ft | 493 kts | 162° |
| 2026-05-08 06:48 | 50.08155 | 20.58417 | 37064 ft | 492 kts | 162° |
| 2026-05-08 06:49 | 50.01749 | 20.62138 | 37068 ft | 491 kts | 162° |
| 2026-05-08 06:49 | 49.95391 | 20.65819 | 37061 ft | 490 kts | 162° |
| 2026-05-08 06:50 | 49.88987 | 20.69514 | 37062 ft | 492 kts | 163° |
| 2026-05-08 06:50 | 49.82565 | 20.73208 | 37061 ft | 493 kts | 163° |
| 2026-05-08 06:51 | 49.76139 | 20.76896 | 37038 ft | 492 kts | 163° |
| 2026-05-08 06:51 | 49.69724 | 20.80568 | 37055 ft | 491 kts | 163° |
| 2026-05-08 06:52 | 49.63316 | 20.84225 | 37056 ft | 491 kts | 163° |
| 2026-05-08 06:52 | 49.56898 | 20.87875 | 37054 ft | 492 kts | 163° |
| 2026-05-08 06:53 | 49.50473 | 20.91521 | 37049 ft | 492 kts | 163° |
| 2026-05-08 06:53 | 49.44041 | 20.95160 | 37050 ft | 492 kts | 163° |
| 2026-05-08 06:54 | 49.37616 | 20.98786 | 37052 ft | 492 kts | 163° |
| 2026-05-08 06:54 | 49.31109 | 21.01880 | 37041 ft | 487 kts | 169° |
| 2026-05-08 06:55 | 49.24513 | 21.04287 | 37053 ft | 487 kts | 171° |
| 2026-05-08 06:55 | 49.17903 | 21.06573 | 37048 ft | 487 kts | 171° |
| 2026-05-08 06:56 | 49.11298 | 21.08850 | 37052 ft | 487 kts | 171° |
| 2026-05-08 06:56 | 49.04689 | 21.11138 | 37031 ft | 487 kts | 171° |
| 2026-05-08 06:57 | 48.98080 | 21.13430 | 37028 ft | 486 kts | 171° |
| 2026-05-08 06:57 | 48.91496 | 21.15708 | 37044 ft | 484 kts | 171° |
| 2026-05-08 06:58 | 48.84966 | 21.17962 | 37043 ft | 485 kts | 171° |
| 2026-05-08 06:58 | 48.78384 | 21.20227 | 37046 ft | 485 kts | 171° |
| 2026-05-08 06:59 | 48.71794 | 21.22487 | 37045 ft | 485 kts | 171° |
| 2026-05-08 06:59 | 48.65208 | 21.24740 | 37036 ft | 485 kts | 171° |
| 2026-05-08 07:00 | 48.58611 | 21.26991 | 37048 ft | 487 kts | 171° |
| 2026-05-08 07:00 | 48.52078 | 21.29799 | 37046 ft | 492 kts | 161° |
| 2026-05-08 07:01 | 48.45971 | 21.34568 | 37037 ft | 496 kts | 154° |
| 2026-05-08 07:01 | 48.39994 | 21.39804 | 37036 ft | 497 kts | 153° |
| 2026-05-08 07:02 | 48.34027 | 21.45094 | 37041 ft | 499 kts | 154° |
| 2026-05-08 07:02 | 48.28028 | 21.50354 | 37045 ft | 500 kts | 154° |
| 2026-05-08 07:03 | 48.22050 | 21.55548 | 37045 ft | 500 kts | 154° |
| 2026-05-08 07:03 | 48.16034 | 21.60753 | 37062 ft | 499 kts | 154° |
| 2026-05-08 07:04 | 48.10010 | 21.65950 | 37068 ft | 500 kts | 154° |
| 2026-05-08 07:04 | 48.04994 | 21.70267 | 37076 ft | 501 kts | 154° |
| 2026-05-08 07:05 | 47.98941 | 21.75466 | 37072 ft | 502 kts | 154° |
| 2026-05-08 07:05 | 47.92894 | 21.80647 | 37076 ft | 501 kts | 154° |
| 2026-05-08 07:06 | 47.86858 | 21.85805 | 37069 ft | 500 kts | 154° |
| 2026-05-08 07:06 | 47.80811 | 21.90955 | 37053 ft | 502 kts | 154° |
| 2026-05-08 07:07 | 47.74738 | 21.96113 | 37060 ft | 504 kts | 154° |
| 2026-05-08 07:07 | 47.68652 | 22.01270 | 37057 ft | 503 kts | 154° |
| 2026-05-08 07:08 | 47.62578 | 22.06405 | 37062 ft | 502 kts | 155° |
| 2026-05-08 07:08 | 47.56929 | 22.12596 | 37064 ft | 512 kts | 139° |
| 2026-05-08 07:09 | 47.52413 | 22.20860 | 37064 ft | 520 kts | 130° |
| 2026-05-08 07:09 | 47.48227 | 22.29599 | 37062 ft | 521 kts | 129° |
| 2026-05-08 07:10 | 47.44076 | 22.38373 | 37067 ft | 521 kts | 129° |
| 2026-05-08 07:10 | 47.39889 | 22.47100 | 37067 ft | 521 kts | 129° |
| 2026-05-08 07:11 | 47.35678 | 22.55788 | 37064 ft | 520 kts | 129° |
| 2026-05-08 07:11 | 47.31485 | 22.64392 | 37067 ft | 520 kts | 129° |
| 2026-05-08 07:12 | 47.27235 | 22.73088 | 37069 ft | 519 kts | 129° |
| 2026-05-08 07:12 | 47.23038 | 22.81654 | 37068 ft | 519 kts | 130° |
| 2026-05-08 07:13 | 47.18808 | 22.90262 | 37047 ft | 519 kts | 130° |
| 2026-05-08 07:13 | 47.14566 | 22.98866 | 37064 ft | 520 kts | 130° |
| 2026-05-08 07:14 | 47.10312 | 23.07467 | 37064 ft | 521 kts | 130° |
| 2026-05-08 07:14 | 47.06046 | 23.16068 | 37064 ft | 521 kts | 130° |
| 2026-05-08 07:15 | 47.01779 | 23.24644 | 37060 ft | 521 kts | 130° |
| 2026-05-08 07:15 | 46.97508 | 23.33201 | 37062 ft | 520 kts | 130° |
| 2026-05-08 07:16 | 46.93233 | 23.41738 | 37059 ft | 520 kts | 130° |
| 2026-05-08 07:16 | 46.88954 | 23.50257 | 37070 ft | 520 kts | 130° |
| 2026-05-08 07:17 | 46.84678 | 23.58748 | 37075 ft | 518 kts | 130° |
| 2026-05-08 07:17 | 46.80407 | 23.67199 | 37078 ft | 517 kts | 130° |
| 2026-05-08 07:18 | 46.76130 | 23.75635 | 37073 ft | 518 kts | 130° |
| 2026-05-08 07:18 | 46.71830 | 23.84092 | 37061 ft | 519 kts | 130° |
| 2026-05-08 07:19 | 46.67531 | 23.92523 | 37049 ft | 518 kts | 130° |
| 2026-05-08 07:19 | 46.63236 | 24.00921 | 37050 ft | 517 kts | 130° |
| 2026-05-08 07:20 | 46.58964 | 24.09248 | 37046 ft | 517 kts | 130° |
| 2026-05-08 07:20 | 46.54657 | 24.17618 | 37045 ft | 517 kts | 130° |
| 2026-05-08 07:21 | 46.50342 | 24.25979 | 37046 ft | 517 kts | 130° |
| 2026-05-08 07:21 | 46.46025 | 24.34318 | 37046 ft | 517 kts | 130° |
| 2026-05-08 07:22 | 46.41696 | 24.42654 | 37075 ft | 517 kts | 130° |
| 2026-05-08 07:22 | 46.37364 | 24.50971 | 37048 ft | 517 kts | 130° |
| 2026-05-08 07:23 | 46.33022 | 24.59283 | 37048 ft | 518 kts | 130° |
| 2026-05-08 07:23 | 46.28670 | 24.67590 | 37048 ft | 518 kts | 130° |
| 2026-05-08 07:24 | 46.24309 | 24.75890 | 37051 ft | 519 kts | 130° |
| 2026-05-08 07:24 | 46.19939 | 24.84182 | 37050 ft | 519 kts | 130° |
| 2026-05-08 07:25 | 46.15591 | 24.92408 | 37044 ft | 519 kts | 130° |
| 2026-05-08 07:26 | 46.09010 | 25.04816 | 37058 ft | 520 kts | 131° |
| 2026-05-08 07:26 | 46.04610 | 25.13078 | 37057 ft | 519 kts | 131° |
| 2026-05-08 07:27 | 46.00211 | 25.21314 | 37049 ft | 519 kts | 131° |
| 2026-05-08 07:27 | 45.95803 | 25.29544 | 37043 ft | 519 kts | 131° |
| 2026-05-08 07:28 | 45.91392 | 25.37755 | 37067 ft | 519 kts | 131° |
| 2026-05-08 07:28 | 45.86974 | 25.45955 | 37069 ft | 519 kts | 131° |
| 2026-05-08 07:29 | 45.82550 | 25.54142 | 37071 ft | 519 kts | 131° |
| 2026-05-08 07:29 | 45.78122 | 25.62314 | 37071 ft | 519 kts | 131° |
| 2026-05-08 07:30 | 45.73684 | 25.70480 | 37070 ft | 520 kts | 131° |
| 2026-05-08 07:30 | 45.69272 | 25.78575 | 37056 ft | 520 kts | 131° |
| 2026-05-08 07:31 | 45.64821 | 25.86718 | 37057 ft | 520 kts | 131° |
| 2026-05-08 07:31 | 45.60366 | 25.94845 | 37057 ft | 520 kts | 131° |
| 2026-05-08 07:32 | 45.55900 | 26.02969 | 37060 ft | 520 kts | 131° |
| 2026-05-08 07:32 | 45.51425 | 26.11085 | 37057 ft | 520 kts | 131° |
| 2026-05-08 07:33 | 45.46944 | 26.19188 | 37060 ft | 520 kts | 131° |
| 2026-05-08 07:33 | 45.42460 | 26.27276 | 37059 ft | 520 kts | 131° |
| 2026-05-08 07:34 | 45.37973 | 26.35342 | 37062 ft | 520 kts | 131° |
| 2026-05-08 07:34 | 45.33482 | 26.43393 | 37059 ft | 520 kts | 131° |
| 2026-05-08 07:35 | 45.28990 | 26.51429 | 37059 ft | 519 kts | 131° |
| 2026-05-08 07:35 | 45.24509 | 26.59375 | 37062 ft | 519 kts | 131° |
| 2026-05-08 07:36 | 45.19975 | 26.67344 | 37064 ft | 520 kts | 131° |
| 2026-05-08 07:36 | 45.15422 | 26.75329 | 37064 ft | 521 kts | 131° |
| 2026-05-08 07:37 | 45.10867 | 26.83307 | 37069 ft | 521 kts | 131° |
| 2026-05-08 07:37 | 45.06309 | 26.91273 | 37073 ft | 521 kts | 131° |
| 2026-05-08 07:38 | 45.01748 | 26.99222 | 37069 ft | 521 kts | 131° |
| 2026-05-08 07:38 | 44.97178 | 27.07162 | 37075 ft | 521 kts | 131° |
| 2026-05-08 07:39 | 44.92604 | 27.15087 | 37075 ft | 521 kts | 131° |
| 2026-05-08 07:39 | 44.88025 | 27.22998 | 37078 ft | 521 kts | 131° |
| 2026-05-08 07:40 | 44.83436 | 27.30905 | 37083 ft | 521 kts | 131° |
| 2026-05-08 07:40 | 44.78834 | 27.38811 | 37081 ft | 522 kts | 131° |
| 2026-05-08 07:41 | 44.74225 | 27.46709 | 37078 ft | 522 kts | 131° |
| 2026-05-08 07:41 | 44.69608 | 27.54598 | 37074 ft | 522 kts | 131° |
| 2026-05-08 07:42 | 44.65018 | 27.62420 | 37078 ft | 522 kts | 131° |
| 2026-05-08 07:42 | 44.60360 | 27.70337 | 37078 ft | 522 kts | 131° |
| 2026-05-08 07:43 | 44.55757 | 27.78137 | 37078 ft | 522 kts | 131° |
| 2026-05-08 07:43 | 44.51122 | 27.85970 | 37081 ft | 522 kts | 131° |
| 2026-05-08 07:44 | 44.46478 | 27.93797 | 37073 ft | 522 kts | 131° |
| 2026-05-08 07:44 | 44.41825 | 28.01616 | 37081 ft | 524 kts | 131° |
| 2026-05-08 07:45 | 44.37154 | 28.09445 | 37083 ft | 524 kts | 131° |
| 2026-05-08 07:45 | 44.32478 | 28.17262 | 37096 ft | 524 kts | 131° |
| 2026-05-08 07:46 | 44.27795 | 28.25068 | 37093 ft | 524 kts | 131° |
| 2026-05-08 07:46 | 44.23107 | 28.32862 | 37086 ft | 524 kts | 131° |
| 2026-05-08 07:47 | 44.18417 | 28.40638 | 37089 ft | 524 kts | 131° |
| 2026-05-08 07:47 | 44.13755 | 28.48347 | 37093 ft | 524 kts | 131° |
| 2026-05-08 07:48 | 44.09055 | 28.56096 | 37098 ft | 524 kts | 131° |
| 2026-05-08 07:48 | 44.04348 | 28.63837 | 37080 ft | 525 kts | 131° |
| 2026-05-08 07:49 | 43.99624 | 28.71586 | 37085 ft | 526 kts | 131° |
| 2026-05-08 07:49 | 43.94895 | 28.79321 | 37111 ft | 526 kts | 131° |
| 2026-05-08 07:50 | 43.90162 | 28.87042 | 37099 ft | 525 kts | 131° |
| 2026-05-08 07:50 | 43.85434 | 28.94734 | 37120 ft | 524 kts | 131° |
| 2026-05-08 07:51 | 43.80704 | 29.02408 | 37109 ft | 524 kts | 131° |
| 2026-05-08 07:51 | 43.75964 | 29.10080 | 37107 ft | 523 kts | 131° |
| 2026-05-08 07:52 | 43.71219 | 29.17681 | 37123 ft | 522 kts | 133° |
| 2026-05-08 07:52 | 43.66287 | 29.25054 | 37116 ft | 524 kts | 135° |
| 2026-05-08 07:53 | 43.61281 | 29.32393 | 37099 ft | 525 kts | 134° |
| 2026-05-08 07:53 | 43.56302 | 29.39741 | 37118 ft | 523 kts | 134° |
| 2026-05-08 07:54 | 43.51380 | 29.47035 | 37124 ft | 523 kts | 134° |
| 2026-05-08 07:54 | 43.46425 | 29.54371 | 37122 ft | 523 kts | 134° |
| 2026-05-08 07:55 | 43.41475 | 29.61681 | 37120 ft | 521 kts | 134° |
| 2026-05-08 07:55 | 43.36527 | 29.68968 | 37105 ft | 521 kts | 134° |
| 2026-05-08 07:56 | 43.31571 | 29.76245 | 37123 ft | 523 kts | 134° |
| 2026-05-08 07:56 | 43.26581 | 29.83553 | 37121 ft | 525 kts | 134° |
| 2026-05-08 07:57 | 43.21578 | 29.90861 | 37121 ft | 525 kts | 134° |
| 2026-05-08 07:57 | 43.16573 | 29.98155 | 37120 ft | 525 kts | 134° |
| 2026-05-08 07:58 | 43.11565 | 30.05435 | 37118 ft | 524 kts | 134° |
| 2026-05-08 07:58 | 43.07411 | 30.11458 | 37123 ft | 523 kts | 134° |
| 2026-05-08 07:59 | 43.01602 | 30.19860 | 37121 ft | 523 kts | 135° |
| 2026-05-08 07:59 | 42.96595 | 30.27081 | 37122 ft | 524 kts | 135° |
| 2026-05-08 08:00 | 42.91572 | 30.34308 | 37123 ft | 525 kts | 135° |
| 2026-05-08 08:00 | 42.87353 | 30.40364 | 37124 ft | 526 kts | 135° |
| 2026-05-08 08:01 | 42.82349 | 30.47531 | 37130 ft | 525 kts | 135° |
| 2026-05-08 08:01 | 42.77339 | 30.54738 | 37119 ft | 524 kts | 132° |
| 2026-05-08 08:02 | 42.73380 | 30.63024 | 37125 ft | 524 kts | 113° |
| 2026-05-08 08:02 | 42.71002 | 30.72385 | 37132 ft | 524 kts | 107° |
| 2026-05-08 08:03 | 42.68958 | 30.81894 | 37127 ft | 523 kts | 105° |
| 2026-05-08 08:03 | 42.66941 | 30.91389 | 37130 ft | 523 kts | 106° |
| 2026-05-08 08:04 | 42.64880 | 31.00869 | 37131 ft | 523 kts | 106° |
| 2026-05-08 08:04 | 42.62792 | 31.10328 | 37132 ft | 523 kts | 106° |
| 2026-05-08 08:05 | 42.60692 | 31.19773 | 37131 ft | 522 kts | 106° |
| 2026-05-08 08:05 | 42.58585 | 31.29213 | 37133 ft | 522 kts | 106° |
| 2026-05-08 08:06 | 42.56473 | 31.38644 | 37143 ft | 523 kts | 106° |
| 2026-05-08 08:06 | 42.54354 | 31.48064 | 37140 ft | 522 kts | 106° |
| 2026-05-08 08:07 | 42.52244 | 31.57403 | 37139 ft | 522 kts | 106° |
| 2026-05-08 08:07 | 42.50110 | 31.66810 | 37138 ft | 522 kts | 107° |
| 2026-05-08 08:08 | 42.47969 | 31.76205 | 37143 ft | 522 kts | 106° |
| 2026-05-08 08:08 | 42.45817 | 31.85610 | 37147 ft | 523 kts | 107° |
| 2026-05-08 08:09 | 42.43657 | 31.95011 | 37131 ft | 523 kts | 107° |
| 2026-05-08 08:09 | 42.41490 | 32.04400 | 37139 ft | 523 kts | 106° |
| 2026-05-08 08:10 | 42.39310 | 32.13808 | 37135 ft | 524 kts | 106° |
| 2026-05-08 08:10 | 42.37121 | 32.23213 | 37151 ft | 524 kts | 106° |
| 2026-05-08 08:11 | 42.34924 | 32.32615 | 37140 ft | 524 kts | 107° |
| 2026-05-08 08:11 | 42.32731 | 32.41958 | 37143 ft | 525 kts | 106° |
| 2026-05-08 08:12 | 42.30515 | 32.51359 | 37152 ft | 525 kts | 106° |
| 2026-05-08 08:12 | 42.28293 | 32.60747 | 37148 ft | 524 kts | 106° |
| 2026-05-08 08:13 | 42.26066 | 32.70121 | 37143 ft | 524 kts | 106° |
| 2026-05-08 08:13 | 42.23831 | 32.79488 | 37144 ft | 524 kts | 106° |
| 2026-05-08 08:14 | 42.21586 | 32.88855 | 37143 ft | 524 kts | 107° |
| 2026-05-08 08:14 | 42.19336 | 32.98209 | 37151 ft | 525 kts | 106° |
| 2026-05-08 08:15 | 42.17076 | 33.07566 | 37155 ft | 525 kts | 106° |
| 2026-05-08 08:15 | 42.14806 | 33.16924 | 37150 ft | 525 kts | 107° |
| 2026-05-08 08:16 | 42.12528 | 33.26277 | 37154 ft | 525 kts | 107° |
| 2026-05-08 08:16 | 42.10243 | 33.35622 | 37156 ft | 525 kts | 106° |
| 2026-05-08 08:17 | 42.07966 | 33.44898 | 37154 ft | 525 kts | 107° |
| 2026-05-08 08:17 | 42.05665 | 33.54230 | 37156 ft | 525 kts | 107° |
| 2026-05-08 08:18 | 42.03356 | 33.63561 | 37164 ft | 525 kts | 107° |
| 2026-05-08 08:18 | 42.01041 | 33.72877 | 37159 ft | 525 kts | 107° |
| 2026-05-08 08:19 | 41.98717 | 33.82194 | 37165 ft | 525 kts | 107° |
| 2026-05-08 08:19 | 41.96387 | 33.91499 | 37168 ft | 525 kts | 107° |
| 2026-05-08 08:20 | 41.94049 | 34.00794 | 37162 ft | 525 kts | 107° |
| 2026-05-08 08:20 | 41.91706 | 34.10077 | 37162 ft | 525 kts | 107° |
| 2026-05-08 08:21 | 41.89354 | 34.19357 | 37163 ft | 525 kts | 107° |
| 2026-05-08 08:21 | 41.86996 | 34.28625 | 37165 ft | 525 kts | 107° |
| 2026-05-08 08:22 | 41.84632 | 34.37887 | 37162 ft | 525 kts | 107° |
| 2026-05-08 08:22 | 41.82255 | 34.47145 | 37161 ft | 525 kts | 107° |
| 2026-05-08 08:23 | 41.79875 | 34.56390 | 37160 ft | 525 kts | 107° |
| 2026-05-08 08:23 | 41.77489 | 34.65631 | 37160 ft | 525 kts | 107° |
| 2026-05-08 08:24 | 41.75110 | 34.74806 | 37160 ft | 525 kts | 107° |
| 2026-05-08 08:24 | 41.72709 | 34.84027 | 37177 ft | 524 kts | 107° |
| 2026-05-08 08:25 | 41.70301 | 34.93232 | 37167 ft | 523 kts | 107° |
| 2026-05-08 08:25 | 41.67892 | 35.02417 | 37171 ft | 523 kts | 107° |
| 2026-05-08 08:26 | 41.65478 | 35.11584 | 37171 ft | 522 kts | 107° |
| 2026-05-08 08:26 | 41.63060 | 35.20731 | 37176 ft | 521 kts | 107° |
| 2026-05-08 08:27 | 41.60639 | 35.29861 | 37166 ft | 521 kts | 107° |
| 2026-05-08 08:27 | 41.58210 | 35.38984 | 37166 ft | 521 kts | 107° |
| 2026-05-08 08:28 | 41.55774 | 35.48097 | 37169 ft | 521 kts | 107° |
| 2026-05-08 08:28 | 41.53331 | 35.57200 | 37169 ft | 521 kts | 107° |
| 2026-05-08 08:29 | 41.50879 | 35.66301 | 37172 ft | 521 kts | 108° |
| 2026-05-08 08:29 | 41.48423 | 35.75392 | 37169 ft | 521 kts | 108° |
| 2026-05-08 08:30 | 41.45957 | 35.84480 | 37167 ft | 521 kts | 108° |
| 2026-05-08 08:30 | 41.42262 | 35.98038 | 37176 ft | 521 kts | 108° |
| 2026-05-08 08:31 | 41.39779 | 36.07111 | 37175 ft | 521 kts | 108° |
| 2026-05-08 08:31 | 41.37292 | 36.16163 | 37174 ft | 521 kts | 108° |
| 2026-05-08 08:32 | 41.34799 | 36.25208 | 37174 ft | 520 kts | 108° |
| 2026-05-08 08:32 | 41.32295 | 36.34252 | 37179 ft | 520 kts | 108° |
| 2026-05-08 08:33 | 41.29790 | 36.43271 | 37172 ft | 520 kts | 108° |
| 2026-05-08 08:33 | 41.27331 | 36.52300 | 37170 ft | 518 kts | 104° |
| 2026-05-08 08:34 | 41.26048 | 36.61664 | 37184 ft | 514 kts | 94° |
| 2026-05-08 08:34 | 41.25299 | 36.71117 | 37183 ft | 514 kts | 93° |
| 2026-05-08 08:35 | 41.24637 | 36.80503 | 37189 ft | 514 kts | 93° |
| 2026-05-08 08:35 | 41.23947 | 36.90008 | 37177 ft | 513 kts | 93° |
| 2026-05-08 08:36 | 41.23241 | 36.99370 | 37185 ft | 513 kts | 93° |
| 2026-05-08 08:36 | 41.22516 | 37.08793 | 37180 ft | 513 kts | 93° |
| 2026-05-08 08:37 | 41.21783 | 37.18209 | 37184 ft | 513 kts | 93° |
| 2026-05-08 08:37 | 41.21052 | 37.27628 | 37186 ft | 513 kts | 93° |
| 2026-05-08 08:38 | 41.20363 | 37.37042 | 37187 ft | 513 kts | 93° |
| 2026-05-08 08:38 | 41.19675 | 37.46461 | 37186 ft | 513 kts | 93° |
| 2026-05-08 08:39 | 41.18972 | 37.55874 | 37192 ft | 512 kts | 93° |
| 2026-05-08 08:39 | 41.18404 | 37.65287 | 37192 ft | 511 kts | 92° |
| 2026-05-08 08:40 | 41.17686 | 37.74677 | 37197 ft | 512 kts | 94° |
| 2026-05-08 08:40 | 41.16853 | 37.84062 | 37202 ft | 512 kts | 94° |
| 2026-05-08 08:41 | 41.16030 | 37.93450 | 37204 ft | 512 kts | 94° |
| 2026-05-08 08:41 | 41.15275 | 38.02837 | 37209 ft | 512 kts | 94° |
| 2026-05-08 08:42 | 41.14533 | 38.12182 | 37208 ft | 512 kts | 94° |
| 2026-05-08 08:42 | 41.13774 | 38.21573 | 37211 ft | 511 kts | 94° |
| 2026-05-08 08:43 | 41.13006 | 38.30944 | 37208 ft | 511 kts | 94° |
| 2026-05-08 08:43 | 41.12233 | 38.40308 | 37208 ft | 511 kts | 94° |
| 2026-05-08 08:44 | 41.11452 | 38.49665 | 37203 ft | 511 kts | 94° |
| 2026-05-08 08:44 | 41.10663 | 38.59029 | 37199 ft | 511 kts | 94° |
| 2026-05-08 08:45 | 41.09862 | 38.68391 | 37202 ft | 511 kts | 94° |
| 2026-05-08 08:45 | 41.09038 | 38.77747 | 37199 ft | 511 kts | 95° |
| 2026-05-08 08:46 | 41.08183 | 38.87107 | 37204 ft | 511 kts | 95° |
| 2026-05-08 08:46 | 41.07324 | 38.96442 | 37196 ft | 510 kts | 95° |
| 2026-05-08 08:47 | 41.06462 | 39.05781 | 37198 ft | 510 kts | 95° |
| 2026-05-08 08:47 | 41.05602 | 39.15046 | 37196 ft | 510 kts | 95° |
| 2026-05-08 08:48 | 41.04746 | 39.24376 | 37201 ft | 510 kts | 95° |
| 2026-05-08 08:48 | 41.03885 | 39.33694 | 37198 ft | 510 kts | 95° |
| 2026-05-08 08:49 | 41.03015 | 39.43026 | 37205 ft | 510 kts | 95° |
| 2026-05-08 08:49 | 41.02139 | 39.52352 | 37210 ft | 510 kts | 95° |
| 2026-05-08 08:50 | 41.01253 | 39.61673 | 37209 ft | 510 kts | 95° |
| 2026-05-08 08:50 | 41.00360 | 39.70992 | 37208 ft | 511 kts | 95° |
| 2026-05-08 08:51 | 40.99580 | 39.80331 | 37218 ft | 510 kts | 91° |
| 2026-05-08 08:51 | 40.99274 | 39.89701 | 37214 ft | 509 kts | 90° |
| 2026-05-08 08:52 | 40.99052 | 39.99073 | 37208 ft | 509 kts | 90° |
| 2026-05-08 08:52 | 40.98834 | 40.08445 | 37209 ft | 510 kts | 90° |
| 2026-05-08 08:53 | 40.98600 | 40.17841 | 37206 ft | 511 kts | 90° |
| 2026-05-08 08:53 | 40.98399 | 40.25640 | 37203 ft | 510 kts | 90° |
| 2026-05-08 08:54 | 40.98140 | 40.35031 | 37203 ft | 510 kts | 90° |
| 2026-05-08 08:54 | 40.98095 | 40.36614 | 37204 ft | 510 kts | 90° |